createdAt,value
2023-03-02T00:00:35.864Z,73.91
2023-03-02T00:01:41.917Z,73.63
2023-03-02T00:02:43.959Z,73.45
2023-03-02T00:03:45.786Z,71.50
2023-03-02T00:04:50.344Z,71.39
2023-03-02T00:05:52.049Z,70.14
2023-03-02T00:06:56.641Z,69.67
2023-03-02T00:07:58.593Z,71.03
2023-03-02T00:09:00.817Z,71.12
2023-03-02T00:10:02.557Z,71.27
2023-03-02T00:11:04.285Z,69.19
2023-03-02T00:12:06.527Z,70.14
2023-03-02T00:13:08.097Z,69.97
2023-03-02T00:14:09.695Z,70.78
2023-03-02T00:15:11.452Z,70.66
2023-03-02T00:16:13.113Z,70.04
2023-03-02T00:17:14.759Z,69.90
2023-03-02T00:18:16.379Z,70.01
2023-03-02T00:19:18.030Z,70.62
2023-03-02T00:20:19.694Z,71.08
2023-03-02T00:21:21.291Z,71.07
2023-03-02T00:22:22.968Z,70.73
2023-03-02T00:23:24.711Z,70.29
2023-03-02T00:24:26.316Z,70.08
2023-03-02T00:25:28.892Z,68.60
2023-03-02T00:26:35.858Z,67.94
2023-03-02T00:27:37.519Z,68.21
2023-03-02T00:28:39.106Z,68.04
2023-03-02T00:29:40.939Z,68.19
2023-03-02T00:30:42.583Z,69.58
2023-03-02T00:31:44.310Z,69.94
2023-03-02T00:32:46.027Z,69.65
2023-03-02T00:33:47.621Z,69.84
2023-03-02T00:34:49.220Z,68.51
2023-03-02T00:35:50.914Z,66.63
2023-03-02T00:36:52.863Z,68.22
2023-03-02T00:37:54.524Z,68.00
2023-03-02T00:38:57.454Z,68.19
2023-03-02T00:39:59.038Z,68.01
2023-03-02T00:41:00.642Z,67.98
2023-03-02T00:42:02.361Z,67.55
2023-03-02T00:43:04.191Z,68.07
2023-03-02T00:44:05.841Z,67.27
2023-03-02T00:45:07.993Z,65.40
2023-03-02T00:46:13.765Z,64.66
2023-03-02T00:47:15.993Z,65.80
2023-03-02T00:48:17.595Z,66.61
2023-03-02T00:49:19.166Z,66.19
2023-03-02T00:50:20.780Z,67.61
2023-03-02T00:51:22.457Z,67.95
2023-03-02T00:52:25.387Z,67.82
2023-03-02T00:53:27.005Z,67.75
2023-03-02T00:54:28.654Z,67.52
2023-03-02T00:55:30.260Z,68.06
2023-03-02T00:56:33.905Z,68.29
2023-03-02T00:57:35.735Z,68.47
2023-03-02T00:58:37.614Z,68.30
2023-03-02T00:59:39.529Z,67.83
2023-03-02T01:00:41.137Z,67.72
2023-03-02T01:01:42.734Z,67.67
2023-03-02T01:02:44.805Z,66.23
2023-03-02T01:03:46.504Z,66.86
2023-03-02T01:04:48.355Z,65.22
2023-03-02T01:05:50.153Z,65.00
2023-03-02T01:06:51.757Z,64.91
2023-03-02T01:07:53.591Z,66.58
2023-03-02T01:08:55.439Z,65.01
2023-03-02T01:09:57.038Z,66.78
2023-03-02T01:11:01.411Z,66.76
2023-03-02T01:12:03.199Z,67.55
2023-03-02T01:13:05.924Z,66.03
2023-03-02T01:14:07.565Z,66.86
2023-03-02T01:15:09.929Z,65.44
2023-03-02T01:16:12.072Z,67.04
2023-03-02T01:17:14.115Z,66.12
2023-03-02T01:18:15.706Z,67.68
2023-03-02T01:19:17.459Z,68.81
2023-03-02T01:20:19.121Z,66.85
2023-03-02T01:21:20.808Z,64.63
2023-03-02T01:22:22.831Z,67.53
2023-03-02T01:23:24.459Z,67.73
2023-03-02T01:24:26.167Z,65.26
2023-03-02T01:25:27.745Z,64.70
2023-03-02T01:26:29.646Z,67.98
2023-03-02T01:27:31.333Z,65.28
2023-03-02T01:28:32.961Z,65.59
2023-03-02T01:29:34.562Z,65.32
2023-03-02T01:30:36.223Z,65.79
2023-03-02T01:31:37.947Z,62.98
2023-03-02T01:32:39.681Z,64.81
2023-03-02T01:33:41.309Z,63.25
2023-03-02T01:34:42.995Z,66.04
2023-03-02T01:35:46.250Z,63.11
2023-03-02T01:36:47.914Z,62.49
2023-03-02T01:37:49.480Z,62.48
2023-03-02T01:38:51.185Z,63.21
2023-03-02T01:39:52.829Z,62.40
2023-03-02T01:40:54.410Z,62.22
2023-03-02T01:41:56.080Z,62.02
2023-03-02T01:42:58.679Z,62.32
2023-03-02T01:44:00.240Z,62.33
2023-03-02T01:45:02.103Z,62.52
2023-03-02T01:46:06.650Z,62.80
2023-03-02T01:47:14.002Z,63.01
2023-03-02T01:48:16.309Z,63.07
2023-03-02T01:49:17.913Z,63.14
2023-03-02T01:50:25.014Z,63.30
2023-03-02T01:51:27.698Z,63.59
2023-03-02T01:52:29.565Z,63.93
2023-03-02T01:53:32.233Z,64.26
2023-03-02T01:54:33.827Z,64.73
2023-03-02T01:55:35.472Z,65.29
2023-03-02T01:56:39.211Z,65.13
2023-03-02T01:57:43.882Z,65.32
2023-03-02T01:58:46.466Z,65.84
2023-03-02T01:59:48.057Z,65.89
2023-03-02T02:00:49.680Z,66.18
2023-03-02T02:01:55.742Z,66.79
2023-03-02T02:03:08.764Z,67.21
2023-03-02T02:04:10.457Z,67.58
2023-03-02T02:05:17.901Z,67.33
2023-03-02T02:06:26.554Z,67.19
2023-03-02T02:07:28.210Z,67.19
2023-03-02T02:08:29.828Z,67.24
2023-03-02T02:09:34.841Z,67.05
2023-03-02T02:10:36.534Z,66.95
2023-03-02T02:11:38.198Z,68.20
2023-03-02T02:12:39.836Z,68.66
2023-03-02T02:13:41.574Z,67.94
2023-03-02T02:14:43.260Z,67.75
2023-03-02T02:15:44.912Z,68.42
2023-03-02T02:16:46.541Z,67.77
2023-03-02T02:17:48.358Z,67.66
2023-03-02T02:18:49.966Z,67.66
2023-03-02T02:20:00.575Z,67.93
2023-03-02T02:21:02.257Z,68.00
2023-03-02T02:22:03.906Z,68.18
2023-03-02T02:23:23.725Z,68.53
2023-03-02T02:24:33.900Z,69.01
2023-03-02T02:25:53.783Z,69.28
2023-03-02T02:26:55.632Z,69.52
2023-03-02T02:27:57.265Z,69.74
2023-03-02T02:29:01.087Z,70.02
2023-03-02T02:30:03.697Z,70.24
2023-03-02T02:31:17.075Z,70.39
2023-03-02T02:32:30.730Z,70.61
2023-03-02T02:33:32.522Z,70.53
2023-03-02T02:34:37.997Z,70.64
2023-03-02T02:35:39.646Z,70.55
2023-03-02T02:36:43.674Z,70.38
2023-03-02T02:37:53.891Z,70.15
2023-03-02T02:38:55.935Z,69.79
2023-03-02T02:39:57.596Z,69.62
2023-03-02T02:41:00.216Z,69.33
2023-03-02T02:42:04.378Z,69.24
2023-03-02T02:43:06.021Z,69.03
2023-03-02T02:44:11.858Z,69.10
2023-03-02T02:45:31.666Z,68.58
2023-03-02T02:46:33.799Z,68.33
2023-03-02T02:47:35.769Z,68.27
2023-03-02T02:48:37.452Z,69.27
2023-03-02T02:49:39.463Z,69.15
2023-03-02T02:50:41.066Z,69.18
2023-03-02T02:51:42.655Z,68.60
2023-03-02T02:52:44.294Z,68.38
2023-03-02T02:54:03.861Z,67.84
2023-03-02T02:55:05.822Z,68.30
2023-03-02T02:56:07.765Z,68.73
2023-03-02T02:57:09.655Z,67.98
2023-03-02T02:58:20.686Z,67.00
2023-03-02T02:59:24.707Z,66.36
2023-03-02T03:00:26.335Z,65.89
2023-03-02T03:01:28.050Z,65.62
2023-03-02T03:02:31.031Z,65.41
2023-03-02T03:03:37.457Z,65.27
2023-03-02T03:04:39.204Z,64.94
2023-03-02T03:05:40.815Z,64.52
2023-03-02T03:06:50.681Z,65.04
2023-03-02T03:07:53.333Z,65.15
2023-03-02T03:08:57.462Z,64.30
2023-03-02T03:10:04.420Z,63.60
2023-03-02T03:11:06.048Z,63.32
2023-03-02T03:12:20.580Z,63.23
2023-03-02T03:13:22.194Z,63.38
2023-03-02T03:14:50.137Z,63.01
2023-03-02T03:15:51.728Z,63.05
2023-03-02T03:16:53.588Z,63.12
2023-03-02T03:17:58.964Z,63.37
2023-03-02T03:19:10.645Z,63.52
2023-03-02T03:20:12.539Z,63.43
2023-03-02T03:21:14.174Z,63.27
2023-03-02T03:22:16.263Z,63.13
2023-03-02T03:23:17.936Z,63.36
2023-03-02T03:24:19.663Z,63.13
2023-03-02T03:25:22.246Z,63.14
2023-03-02T03:26:23.834Z,63.27
2023-03-02T03:27:25.464Z,63.33
2023-03-02T03:28:27.862Z,63.50
2023-03-02T03:29:29.621Z,63.59
2023-03-02T03:30:31.236Z,63.38
2023-03-02T03:31:33.015Z,63.28
2023-03-02T03:32:35.497Z,64.22
2023-03-02T03:33:37.080Z,64.80
2023-03-02T03:34:40.889Z,64.72
2023-03-02T03:35:42.767Z,64.91
2023-03-02T03:36:44.502Z,65.16
2023-03-02T03:37:46.088Z,64.91
2023-03-02T03:38:48.771Z,64.62
2023-03-02T03:39:50.377Z,64.18
2023-03-02T03:40:51.992Z,64.29
2023-03-02T03:41:53.578Z,65.33
2023-03-02T03:42:55.233Z,66.11
2023-03-02T03:43:56.857Z,65.74
2023-03-02T03:44:58.480Z,66.66
2023-03-02T03:46:00.119Z,66.54
2023-03-02T03:47:01.853Z,64.54
2023-03-02T03:48:03.562Z,65.87
2023-03-02T03:49:05.392Z,65.70
2023-03-02T03:50:07.197Z,67.29
2023-03-02T03:51:08.798Z,66.76
2023-03-02T03:52:10.387Z,66.72
2023-03-02T03:53:12.057Z,67.72
2023-03-02T03:54:13.635Z,68.02
2023-03-02T03:55:15.263Z,68.52
2023-03-02T03:56:17.086Z,68.59
2023-03-02T03:57:18.718Z,69.17
2023-03-02T03:58:20.399Z,69.38
2023-03-02T03:59:23.168Z,69.60
2023-03-02T04:00:25.057Z,69.83
2023-03-02T04:01:33.572Z,70.08
2023-03-02T04:02:35.214Z,69.95
2023-03-02T04:03:36.791Z,70.24
2023-03-02T04:04:38.386Z,70.19
2023-03-02T04:05:40.057Z,70.48
2023-03-02T04:06:41.719Z,70.56
2023-03-02T04:07:43.391Z,70.92
2023-03-02T04:08:45.020Z,70.95
2023-03-02T04:09:46.702Z,71.40
2023-03-02T04:10:48.363Z,71.80
2023-03-02T04:11:52.367Z,71.88
2023-03-02T04:12:54.035Z,71.87
2023-03-02T04:13:55.645Z,71.74
2023-03-02T04:14:57.316Z,71.72
2023-03-02T04:15:58.918Z,71.98
2023-03-02T04:17:00.546Z,72.02
2023-03-02T04:18:02.656Z,71.77
2023-03-02T04:19:10.830Z,71.91
2023-03-02T04:20:16.706Z,71.75
2023-03-02T04:21:18.794Z,71.79
2023-03-02T04:22:20.452Z,71.65
2023-03-02T04:23:22.090Z,71.60
2023-03-02T04:24:23.957Z,71.67
2023-03-02T04:25:26.648Z,71.69
2023-03-02T04:26:28.309Z,71.88
2023-03-02T04:27:30.022Z,71.57
2023-03-02T04:28:32.397Z,72.16
2023-03-02T04:29:34.278Z,72.25
2023-03-02T04:30:35.897Z,72.14
2023-03-02T04:31:37.579Z,72.43
2023-03-02T04:32:39.236Z,73.10
2023-03-02T04:33:40.843Z,73.22
2023-03-02T04:34:42.501Z,73.65
2023-03-02T04:35:44.151Z,73.93
2023-03-02T04:36:45.836Z,74.16
2023-03-02T04:37:47.475Z,73.14
2023-03-02T04:38:49.354Z,73.88
2023-03-02T04:39:52.803Z,73.46
2023-03-02T04:40:54.385Z,72.89
2023-03-02T04:41:55.965Z,73.69
2023-03-02T04:42:57.571Z,72.60
2023-03-02T04:43:59.258Z,72.18
2023-03-02T04:45:00.900Z,72.61
2023-03-02T04:46:02.607Z,72.65
2023-03-02T04:47:04.246Z,71.31
2023-03-02T04:48:06.353Z,71.11
2023-03-02T04:49:08.042Z,70.33
2023-03-02T04:50:10.648Z,70.17
2023-03-02T04:51:29.805Z,70.21
2023-03-02T04:52:31.513Z,70.58
2023-03-02T04:53:33.092Z,70.34
2023-03-02T04:54:34.765Z,70.74
2023-03-02T04:55:36.397Z,68.92
2023-03-02T04:56:38.171Z,68.94
2023-03-02T04:57:39.884Z,69.10
2023-03-02T04:58:41.467Z,69.49
2023-03-02T04:59:43.106Z,70.08
2023-03-02T05:00:44.745Z,68.47
2023-03-02T05:01:46.701Z,67.69
2023-03-02T05:02:48.336Z,67.57
2023-03-02T05:03:50.071Z,67.12
2023-03-02T05:04:51.738Z,68.66
2023-03-02T05:05:53.359Z,67.12
2023-03-02T05:06:55.139Z,66.16
2023-03-02T05:07:58.546Z,68.29
2023-03-02T05:09:00.630Z,69.09
2023-03-02T05:10:02.306Z,68.00
2023-03-02T05:11:04.518Z,66.51
2023-03-02T05:12:06.661Z,68.43
2023-03-02T05:13:08.263Z,67.16
2023-03-02T05:14:11.100Z,67.89
2023-03-02T05:15:12.741Z,68.11
2023-03-02T05:16:14.423Z,65.85
2023-03-02T05:17:16.050Z,67.24
2023-03-02T05:18:17.801Z,66.96
2023-03-02T05:19:19.487Z,65.69
2023-03-02T05:20:21.415Z,65.43
2023-03-02T05:21:23.067Z,65.44
2023-03-02T05:22:24.661Z,65.08
2023-03-02T05:23:27.596Z,64.45
2023-03-02T05:24:29.282Z,64.22
2023-03-02T05:25:31.836Z,64.05
2023-03-02T05:26:33.776Z,63.96
2023-03-02T05:27:36.858Z,64.52
2023-03-02T05:28:38.533Z,65.05
2023-03-02T05:29:40.174Z,64.50
2023-03-02T05:30:42.119Z,63.74
2023-03-02T05:31:44.568Z,63.57
2023-03-02T05:32:46.271Z,64.20
2023-03-02T05:33:47.927Z,64.73
2023-03-02T05:34:49.532Z,64.02
2023-03-02T05:35:51.159Z,64.51
2023-03-02T05:36:52.832Z,65.98
2023-03-02T05:37:54.439Z,64.53
2023-03-02T05:38:56.070Z,63.40
2023-03-02T05:39:57.693Z,64.01
2023-03-02T05:40:59.336Z,63.02
2023-03-02T05:42:00.992Z,62.25
2023-03-02T05:43:02.605Z,64.03
2023-03-02T05:44:05.088Z,62.65
2023-03-02T05:45:07.343Z,62.53
2023-03-02T05:46:09.113Z,62.66
2023-03-02T05:47:10.796Z,65.83
2023-03-02T05:48:13.129Z,63.27
2023-03-02T05:49:14.738Z,62.61
2023-03-02T05:50:16.561Z,62.22
2023-03-02T05:51:18.171Z,61.84
2023-03-02T05:52:19.984Z,61.27
2023-03-02T05:53:21.605Z,62.29
2023-03-02T05:54:23.223Z,62.09
2023-03-02T05:55:24.863Z,60.27
2023-03-02T05:56:26.776Z,61.00
2023-03-02T05:57:28.422Z,61.84
2023-03-02T05:58:30.005Z,62.49
2023-03-02T05:59:31.622Z,63.51
2023-03-02T06:00:33.241Z,60.11
2023-03-02T06:01:36.949Z,59.02
2023-03-02T06:02:39.363Z,62.06
2023-03-02T06:03:41.073Z,62.12
2023-03-02T06:04:44.424Z,62.48
2023-03-02T06:05:51.051Z,63.53
2023-03-02T06:06:52.829Z,62.01
2023-03-02T06:07:54.889Z,61.21
2023-03-02T06:08:56.515Z,59.25
2023-03-02T06:09:58.127Z,58.36
2023-03-02T06:10:59.956Z,57.67
2023-03-02T06:12:01.605Z,57.53
2023-03-02T06:13:03.314Z,61.69
2023-03-02T06:14:04.913Z,60.13
2023-03-02T06:15:07.301Z,58.85
2023-03-02T06:16:09.133Z,62.21
2023-03-02T06:17:10.817Z,57.55
2023-03-02T06:18:12.751Z,57.19
2023-03-02T06:19:14.367Z,62.40
2023-03-02T06:20:16.040Z,62.72
2023-03-02T06:21:17.678Z,56.62
2023-03-02T06:22:19.294Z,54.21
2023-03-02T06:23:20.956Z,59.98
2023-03-02T06:24:22.628Z,61.61
2023-03-02T06:25:24.725Z,60.39
2023-03-02T06:26:26.400Z,62.09
2023-03-02T06:27:28.017Z,57.11
2023-03-02T06:28:29.618Z,56.16
2023-03-02T06:29:31.280Z,56.55
2023-03-02T06:30:32.942Z,54.77
2023-03-02T06:31:34.800Z,56.05
2023-03-02T06:32:36.617Z,57.41
2023-03-02T06:33:38.276Z,55.87
2023-03-02T06:34:39.918Z,55.03
2023-03-02T06:35:42.488Z,54.28
2023-03-02T06:36:44.274Z,56.73
2023-03-02T06:37:45.935Z,59.30
2023-03-02T06:38:47.534Z,55.19
2023-03-02T06:39:49.112Z,58.05
2023-03-02T06:40:50.744Z,60.03
2023-03-02T06:41:52.493Z,57.60
2023-03-02T06:42:54.207Z,54.94
2023-03-02T06:43:55.844Z,54.22
2023-03-02T06:44:57.532Z,55.60
2023-03-02T06:46:00.830Z,51.77
2023-03-02T06:47:02.502Z,53.28
2023-03-02T06:48:04.525Z,56.83
2023-03-02T06:49:06.555Z,56.74
2023-03-02T06:50:08.803Z,57.14
2023-03-02T06:51:10.448Z,56.70
2023-03-02T06:52:13.661Z,55.62
2023-03-02T06:53:17.734Z,56.20
2023-03-02T06:54:19.342Z,55.80
2023-03-02T06:55:21.074Z,55.39
2023-03-02T06:56:22.874Z,55.12
2023-03-02T06:57:24.498Z,55.55
2023-03-02T06:58:26.319Z,54.62
2023-03-02T06:59:27.980Z,54.93
2023-03-02T07:00:29.569Z,54.40
2023-03-02T07:01:35.745Z,54.38
2023-03-02T07:02:37.568Z,54.09
2023-03-02T07:03:39.298Z,53.13
2023-03-02T07:04:41.000Z,52.97
2023-03-02T07:05:44.568Z,51.27
2023-03-02T07:06:48.046Z,51.09
2023-03-02T07:07:49.709Z,51.24
2023-03-02T07:08:51.361Z,52.76
2023-03-02T07:09:53.037Z,52.82
2023-03-02T07:10:54.659Z,52.43
2023-03-02T07:11:56.806Z,53.37
2023-03-02T07:12:58.409Z,51.75
2023-03-02T07:14:00.830Z,52.35
2023-03-02T07:15:02.513Z,50.21
2023-03-02T07:16:11.283Z,49.85
2023-03-02T07:17:12.974Z,48.60
2023-03-02T07:18:14.597Z,47.89
2023-03-02T07:19:16.496Z,47.15
2023-03-02T07:20:18.417Z,47.28
2023-03-02T07:21:20.055Z,47.10
2023-03-02T07:22:21.849Z,46.75
2023-03-02T07:23:24.909Z,46.79
2023-03-02T07:24:26.504Z,45.80
2023-03-02T07:25:28.225Z,47.14
2023-03-02T07:26:29.888Z,44.99
2023-03-02T07:27:31.542Z,44.69
2023-03-02T07:28:33.177Z,44.02
2023-03-02T07:29:34.869Z,44.78
2023-03-02T07:30:36.505Z,45.19
2023-03-02T07:31:38.122Z,45.23
2023-03-02T07:32:39.867Z,45.01
2023-03-02T07:33:41.605Z,45.64
2023-03-02T07:34:43.256Z,45.51
2023-03-02T07:35:44.881Z,45.90
2023-03-02T07:36:46.508Z,45.94
2023-03-02T07:37:48.188Z,45.74
2023-03-02T07:38:49.798Z,45.93
2023-03-02T07:39:51.490Z,47.40
2023-03-02T07:40:53.123Z,47.80
2023-03-02T07:42:00.791Z,46.16
2023-03-02T07:43:02.423Z,44.39
2023-03-02T07:44:04.170Z,43.85
2023-03-02T07:45:06.483Z,43.92
2023-03-02T07:46:08.152Z,43.52
2023-03-02T07:47:09.889Z,42.44
2023-03-02T07:48:11.501Z,42.41
2023-03-02T07:49:13.159Z,41.77
2023-03-02T07:50:14.932Z,43.28
2023-03-02T07:51:16.562Z,43.01
2023-03-02T07:52:18.186Z,43.59
2023-03-02T07:53:19.783Z,43.53
2023-03-02T07:54:21.466Z,42.29
2023-03-02T07:55:23.248Z,42.90
2023-03-02T07:56:25.129Z,43.25
2023-03-02T07:57:26.801Z,44.17
2023-03-02T07:58:28.501Z,43.43
2023-03-02T07:59:30.207Z,44.06
2023-03-02T08:00:31.826Z,43.42
2023-03-02T08:01:33.786Z,42.45
2023-03-02T08:02:35.739Z,43.42
2023-03-02T08:03:37.554Z,43.82
2023-03-02T08:04:39.169Z,43.81
2023-03-02T08:05:40.858Z,44.69
2023-03-02T08:06:42.680Z,43.35
2023-03-02T08:07:46.479Z,43.77
2023-03-02T08:08:48.257Z,44.01
2023-03-02T08:09:50.035Z,42.95
2023-03-02T08:10:51.635Z,42.93
2023-03-02T08:11:53.404Z,42.72
2023-03-02T08:12:55.042Z,42.43
2023-03-02T08:14:00.390Z,42.41
2023-03-02T08:15:03.740Z,43.88
2023-03-02T08:16:07.402Z,43.33
2023-03-02T08:17:09.104Z,42.79
2023-03-02T08:18:10.693Z,42.68
2023-03-02T08:19:12.418Z,43.50
2023-03-02T08:20:14.237Z,42.88
2023-03-02T08:21:17.971Z,41.67
2023-03-02T08:22:19.603Z,42.17
2023-03-02T08:23:21.382Z,42.39
2023-03-02T08:24:23.012Z,43.49
2023-03-02T08:25:24.784Z,43.30
2023-03-02T08:26:26.498Z,43.00
2023-03-02T08:27:28.129Z,43.00
2023-03-02T08:28:29.816Z,43.38
2023-03-02T08:29:31.469Z,42.76
2023-03-02T08:30:33.125Z,43.76
2023-03-02T08:31:35.251Z,42.67
2023-03-02T08:32:37.138Z,42.96
2023-03-02T08:33:38.888Z,42.10
2023-03-02T08:34:40.706Z,42.08
2023-03-02T08:35:42.349Z,41.72
2023-03-02T08:36:44.665Z,42.89
2023-03-02T08:37:46.218Z,41.74
2023-03-02T08:38:48.517Z,41.89
2023-03-02T08:39:50.508Z,42.66
2023-03-02T08:40:52.676Z,42.41
2023-03-02T08:41:54.349Z,42.62
2023-03-02T08:42:57.500Z,42.81
2023-03-02T08:43:59.359Z,43.00
2023-03-02T08:45:01.012Z,43.37
2023-03-02T08:46:02.700Z,42.91
2023-03-02T08:47:04.460Z,43.29
2023-03-02T08:48:06.286Z,42.88
2023-03-02T08:49:07.933Z,43.22
2023-03-02T08:50:10.308Z,41.88
2023-03-02T08:51:13.964Z,42.17
2023-03-02T08:52:15.673Z,42.84
2023-03-02T08:53:17.273Z,43.02
2023-03-02T08:54:19.274Z,41.88
2023-03-02T08:55:21.148Z,42.35
2023-03-02T08:56:24.804Z,42.37
2023-03-02T08:57:26.484Z,42.85
2023-03-02T08:58:29.808Z,43.39
2023-03-02T08:59:31.430Z,42.35
2023-03-02T09:00:33.166Z,41.97
2023-03-02T09:01:36.164Z,42.44
2023-03-02T09:02:38.314Z,41.95
2023-03-02T09:03:39.918Z,42.25
2023-03-02T09:04:41.767Z,42.34
2023-03-02T09:05:43.863Z,42.72
2023-03-02T09:06:45.556Z,43.83
2023-03-02T09:07:47.215Z,43.33
2023-03-02T09:08:48.907Z,42.51
2023-03-02T09:09:50.558Z,42.32
2023-03-02T09:10:53.091Z,43.33
2023-03-02T09:11:54.863Z,43.20
2023-03-02T09:12:56.455Z,42.56
2023-03-02T09:13:58.099Z,42.39
2023-03-02T09:14:59.717Z,42.47
2023-03-02T09:16:02.027Z,42.43
2023-03-02T09:17:04.171Z,43.06
2023-03-02T09:18:05.831Z,43.29
2023-03-02T09:19:07.436Z,42.68
2023-03-02T09:20:09.960Z,42.92
2023-03-02T09:21:11.593Z,42.96
2023-03-02T09:22:13.245Z,42.78
2023-03-02T09:23:14.837Z,42.82
2023-03-02T09:24:16.515Z,42.58
2023-03-02T09:25:18.764Z,42.81
2023-03-02T09:26:20.711Z,42.60
2023-03-02T09:27:22.334Z,43.06
2023-03-02T09:28:24.148Z,42.99
2023-03-02T09:29:25.971Z,42.97
2023-03-02T09:30:27.691Z,42.77
2023-03-02T09:31:30.440Z,43.14
2023-03-02T09:32:32.378Z,43.60
2023-03-02T09:33:34.660Z,44.00
2023-03-02T09:34:36.338Z,44.02
2023-03-02T09:35:38.711Z,43.60
2023-03-02T09:36:40.412Z,43.34
2023-03-02T09:37:44.272Z,42.92
2023-03-02T09:38:46.147Z,43.16
2023-03-02T09:39:48.056Z,43.09
2023-03-02T09:40:49.898Z,42.81
2023-03-02T09:42:00.943Z,43.36
2023-03-02T09:43:23.836Z,43.87
2023-03-02T09:45:21.700Z,43.99
2023-03-02T09:46:26.287Z,43.48
2023-03-02T09:47:35.470Z,42.88
2023-03-02T09:49:02.056Z,42.51
2023-03-02T09:50:22.693Z,43.17
2023-03-02T09:51:34.696Z,44.64
2023-03-02T09:53:11.847Z,43.12
2023-03-02T09:54:25.225Z,43.62
2023-03-02T09:55:28.559Z,43.20
2023-03-02T09:56:30.461Z,42.70
2023-03-02T09:57:33.975Z,42.49
2023-03-02T09:58:36.364Z,44.00
2023-03-02T09:59:45.345Z,44.80
2023-03-02T10:00:47.221Z,44.03
2023-03-02T10:02:16.754Z,44.15
2023-03-02T10:03:23.433Z,44.81
2023-03-02T10:04:30.375Z,43.94
2023-03-02T10:05:55.440Z,43.62
2023-03-02T10:06:59.712Z,43.69
2023-03-02T10:08:01.294Z,44.10
2023-03-02T10:09:03.074Z,44.99
2023-03-02T10:10:25.940Z,43.15
2023-03-02T10:11:36.213Z,44.38
2023-03-02T10:13:00.069Z,43.72
2023-03-02T10:14:13.586Z,43.92
2023-03-02T10:15:36.220Z,44.03
2023-03-02T10:16:39.068Z,45.01
2023-03-02T10:17:52.944Z,44.74
2023-03-02T10:19:05.404Z,44.79
2023-03-02T10:20:34.250Z,43.65
2023-03-02T10:21:44.238Z,43.42
2023-03-02T10:22:52.561Z,43.18
2023-03-02T10:23:59.800Z,43.19
2023-03-02T10:25:16.608Z,44.47
2023-03-02T10:26:35.481Z,44.09
2023-03-02T10:27:39.937Z,43.37
2023-03-02T10:28:49.582Z,43.30
2023-03-02T10:29:59.310Z,43.55
2023-03-02T10:31:12.564Z,43.68
2023-03-02T10:32:19.492Z,43.83
2023-03-02T10:33:21.365Z,44.03
2023-03-02T10:34:24.660Z,44.88
2023-03-02T10:35:26.921Z,44.09
2023-03-02T10:36:37.855Z,43.16
2023-03-02T10:37:39.744Z,43.42
2023-03-02T10:38:41.473Z,43.39
2023-03-02T10:39:43.085Z,44.97
2023-03-02T10:40:49.455Z,44.72
2023-03-02T10:42:05.149Z,43.94
2023-03-02T10:43:17.220Z,44.45
2023-03-02T10:44:21.636Z,44.11
2023-03-02T10:45:31.253Z,44.62
2023-03-02T10:46:43.104Z,44.70
2023-03-02T10:47:44.854Z,44.31
2023-03-02T10:48:51.873Z,43.85
2023-03-02T10:49:54.344Z,44.91
2023-03-02T10:50:57.178Z,44.49
2023-03-02T10:52:08.539Z,44.69
2023-03-02T10:53:17.651Z,44.70
2023-03-02T10:54:19.316Z,45.12
2023-03-02T10:55:20.977Z,43.99
2023-03-02T10:56:22.854Z,44.96
2023-03-02T10:57:27.283Z,44.39
2023-03-02T10:58:33.027Z,43.70
2023-03-02T10:59:43.613Z,43.51
2023-03-02T11:00:55.881Z,43.64
2023-03-02T11:02:01.094Z,43.14
2023-03-02T11:03:04.677Z,43.08
2023-03-02T11:04:13.480Z,43.28
2023-03-02T11:05:17.767Z,43.35
2023-03-02T11:06:20.287Z,44.04
2023-03-02T11:07:23.577Z,43.14
2023-03-02T11:08:27.178Z,43.15
2023-03-02T11:09:28.875Z,43.53
2023-03-02T11:10:38.245Z,42.78
2023-03-02T11:11:39.930Z,43.27
2023-03-02T11:12:46.002Z,43.45
2023-03-02T11:13:47.691Z,42.78
2023-03-02T11:14:49.273Z,43.01
2023-03-02T11:15:51.990Z,43.07
2023-03-02T11:16:53.772Z,42.67
2023-03-02T11:18:00.112Z,44.09
2023-03-02T11:19:25.880Z,43.27
2023-03-02T11:20:34.397Z,42.44
2023-03-02T11:21:47.572Z,42.49
2023-03-02T11:23:12.009Z,42.96
2023-03-02T11:24:30.218Z,42.77
2023-03-02T11:25:35.718Z,43.13
2023-03-02T11:26:43.033Z,41.88
2023-03-02T11:27:44.702Z,42.28
2023-03-02T11:28:51.964Z,42.75
2023-03-02T11:29:57.298Z,42.62
2023-03-02T11:30:59.117Z,42.78
2023-03-02T11:32:09.334Z,42.52
2023-03-02T11:33:20.808Z,41.93
2023-03-02T11:34:49.135Z,42.79
2023-03-02T11:35:58.825Z,42.90
2023-03-02T11:37:04.974Z,42.98
2023-03-02T11:38:46.804Z,43.03
2023-03-02T11:39:55.845Z,42.71
2023-03-02T11:41:00.295Z,42.38
2023-03-02T11:42:01.908Z,42.18
2023-03-02T11:43:06.395Z,41.46
2023-03-02T11:44:14.320Z,42.14
2023-03-02T11:45:23.809Z,42.06
2023-03-02T11:46:27.874Z,42.23
2023-03-02T11:47:31.484Z,42.29
2023-03-02T11:48:33.952Z,42.49
2023-03-02T11:49:38.548Z,41.91
2023-03-02T11:50:46.206Z,41.87
2023-03-02T11:51:58.868Z,41.99
2023-03-02T11:53:03.774Z,42.25
2023-03-02T11:54:24.599Z,42.78
2023-03-02T11:55:30.229Z,42.28
2023-03-02T11:56:35.212Z,42.08
2023-03-02T11:57:45.470Z,42.25
2023-03-02T11:58:48.888Z,42.38
2023-03-02T11:59:50.536Z,42.64
2023-03-02T12:00:52.370Z,42.53
2023-03-02T12:01:54.028Z,43.02
2023-03-02T12:03:05.402Z,43.47
2023-03-02T12:04:32.380Z,43.13
2023-03-02T12:05:36.497Z,43.12
2023-03-02T12:06:39.970Z,43.68
2023-03-02T12:07:41.632Z,44.07
2023-03-02T12:08:45.075Z,45.37
2023-03-02T12:10:06.054Z,45.59
2023-03-02T12:11:16.896Z,45.56
2023-03-02T12:12:44.244Z,45.51
2023-03-02T12:13:57.938Z,45.99
2023-03-02T12:14:59.638Z,45.83
2023-03-02T12:16:01.566Z,45.67
2023-03-02T12:17:18.833Z,45.83
2023-03-02T12:18:23.040Z,45.89
2023-03-02T12:19:29.556Z,45.77
2023-03-02T12:20:31.170Z,45.89
2023-03-02T12:21:39.503Z,46.23
2023-03-02T12:22:42.308Z,47.14
2023-03-02T12:23:43.867Z,46.76
2023-03-02T12:24:45.493Z,46.67
2023-03-02T12:25:51.383Z,46.46
2023-03-02T12:27:08.250Z,46.57
2023-03-02T12:28:26.238Z,46.93
2023-03-02T12:29:39.990Z,46.98
2023-03-02T12:30:41.644Z,47.12
2023-03-02T12:31:47.026Z,47.03
2023-03-02T12:33:04.321Z,47.01
2023-03-02T12:34:20.856Z,47.14
2023-03-02T12:35:23.335Z,47.13
2023-03-02T12:36:27.352Z,46.69
2023-03-02T12:37:57.328Z,47.44
2023-03-02T12:39:05.258Z,46.97
2023-03-02T12:40:31.354Z,46.56
2023-03-02T12:41:57.618Z,47.00
2023-03-02T12:43:17.560Z,46.99
2023-03-02T12:44:31.392Z,46.80
2023-03-02T12:45:43.425Z,47.29
2023-03-02T12:46:45.915Z,47.43
2023-03-02T12:47:49.590Z,47.46
2023-03-02T12:49:21.665Z,47.35
2023-03-02T12:50:27.631Z,46.89
2023-03-02T12:51:31.184Z,46.83
2023-03-02T12:52:34.378Z,47.06
2023-03-02T12:53:37.480Z,47.71
2023-03-02T12:54:39.142Z,48.03
2023-03-02T12:55:40.809Z,48.16
2023-03-02T12:56:42.758Z,48.86
2023-03-02T12:57:52.058Z,48.92
2023-03-02T12:58:54.078Z,48.81
2023-03-02T13:00:00.775Z,49.80
2023-03-02T13:01:03.001Z,49.76
2023-03-02T13:02:13.514Z,49.88
2023-03-02T13:03:15.195Z,49.54
2023-03-02T13:04:24.350Z,50.12
2023-03-02T13:05:30.879Z,50.25
2023-03-02T13:06:32.747Z,49.86
2023-03-02T13:07:35.636Z,49.94
2023-03-02T13:08:37.317Z,48.84
2023-03-02T13:09:47.734Z,49.00
2023-03-02T13:10:57.756Z,49.14
2023-03-02T13:11:59.397Z,49.87
2023-03-02T13:13:01.070Z,50.63
2023-03-02T13:14:06.099Z,49.77
2023-03-02T13:15:14.143Z,48.97
2023-03-02T13:16:25.434Z,49.20
2023-03-02T13:17:32.528Z,49.77
2023-03-02T13:18:35.605Z,48.88
2023-03-02T13:19:37.521Z,49.09
2023-03-02T13:20:39.235Z,50.04
2023-03-02T13:21:40.982Z,50.34
2023-03-02T13:22:42.789Z,50.31
2023-03-02T13:23:48.860Z,50.16
2023-03-02T13:24:55.589Z,49.92
2023-03-02T13:26:05.492Z,50.63
2023-03-02T13:27:08.029Z,50.62
2023-03-02T13:28:25.321Z,50.23
2023-03-02T13:29:27.545Z,49.62
2023-03-02T13:30:32.564Z,49.87
2023-03-02T13:31:34.867Z,50.32
2023-03-02T13:32:39.426Z,50.21
2023-03-02T13:33:44.537Z,50.94
2023-03-02T13:34:56.742Z,49.74
2023-03-02T13:35:58.480Z,50.52
2023-03-02T13:37:00.119Z,50.63
2023-03-02T13:38:04.656Z,50.46
2023-03-02T13:39:07.671Z,50.44
2023-03-02T13:40:27.437Z,50.73
2023-03-02T13:41:33.842Z,50.36
2023-03-02T13:42:40.425Z,50.27
2023-03-02T13:43:42.051Z,50.87
2023-03-02T13:44:43.671Z,50.61
2023-03-02T13:45:55.235Z,50.92
2023-03-02T13:46:57.062Z,50.71